sensor_id;sensor_type;location;lat;lon;timestamp;P1;durP1;ratioP1;P2;durP2;ratioP2
29358;SDS011;16347;53.232;6.556;2023-03-25T00:01:15;27.75;;;3.67;;
29358;SDS011;16347;53.232;6.556;2023-03-25T00:03:44;33.38;;;4.07;;
29358;SDS011;16347;53.232;6.556;2023-03-25T00:06:17;23.10;;;2.90;;
29358;SDS011;16347;53.232;6.556;2023-03-25T00:08:46;33.28;;;3.67;;
29358;SDS011;16347;53.232;6.556;2023-03-25T00:11:14;25.15;;;3.40;;
29358;SDS011;16347;53.232;6.556;2023-03-25T00:13:42;21.05;;;3.13;;
29358;SDS011;16347;53.232;6.556;2023-03-25T00:16:12;28.63;;;2.50;;
29358;SDS011;16347;53.232;6.556;2023-03-25T00:18:40;24.27;;;3.30;;
29358;SDS011;16347;53.232;6.556;2023-03-25T00:21:09;21.10;;;3.28;;
29358;SDS011;16347;53.232;6.556;2023-03-25T00:23:39;25.50;;;3.20;;
29358;SDS011;16347;53.232;6.556;2023-03-25T00:26:08;34.30;;;3.35;;
29358;SDS011;16347;53.232;6.556;2023-03-25T00:28:37;26.02;;;3.47;;
29358;SDS011;16347;53.232;6.556;2023-03-25T00:31:06;20.50;;;2.67;;
29358;SDS011;16347;53.232;6.556;2023-03-25T00:33:38;21.63;;;3.55;;
29358;SDS011;16347;53.232;6.556;2023-03-25T00:36:09;20.73;;;2.50;;
29358;SDS011;16347;53.232;6.556;2023-03-25T00:38:42;20.77;;;3.08;;
29358;SDS011;16347;53.232;6.556;2023-03-25T00:41:12;25.23;;;3.50;;
29358;SDS011;16347;53.232;6.556;2023-03-25T00:43:43;25.63;;;2.78;;
29358;SDS011;16347;53.232;6.556;2023-03-25T00:46:12;22.83;;;2.78;;
29358;SDS011;16347;53.232;6.556;2023-03-25T00:48:42;26.30;;;3.63;;
29358;SDS011;16347;53.232;6.556;2023-03-25T00:51:10;17.13;;;2.97;;
29358;SDS011;16347;53.232;6.556;2023-03-25T00:53:41;27.42;;;3.17;;
29358;SDS011;16347;53.232;6.556;2023-03-25T00:56:09;32.72;;;3.47;;
29358;SDS011;16347;53.232;6.556;2023-03-25T00:58:38;16.42;;;2.95;;
29358;SDS011;16347;53.232;6.556;2023-03-25T01:01:07;21.48;;;3.38;;
29358;SDS011;16347;53.232;6.556;2023-03-25T01:03:39;31.43;;;5.17;;
29358;SDS011;16347;53.232;6.556;2023-03-25T01:06:09;30.63;;;3.13;;
29358;SDS011;16347;53.232;6.556;2023-03-25T01:08:39;31.88;;;3.83;;
29358;SDS011;16347;53.232;6.556;2023-03-25T01:11:16;25.77;;;3.85;;
29358;SDS011;16347;53.232;6.556;2023-03-25T01:13:49;32.53;;;3.78;;
29358;SDS011;16347;53.232;6.556;2023-03-25T01:16:17;29.27;;;3.75;;
29358;SDS011;16347;53.232;6.556;2023-03-25T01:18:46;37.95;;;4.40;;
29358;SDS011;16347;53.232;6.556;2023-03-25T01:21:14;19.85;;;3.53;;
29358;SDS011;16347;53.232;6.556;2023-03-25T01:23:42;38.08;;;4.32;;
29358;SDS011;16347;53.232;6.556;2023-03-25T01:26:11;35.70;;;3.97;;
29358;SDS011;16347;53.232;6.556;2023-03-25T01:28:40;30.60;;;3.50;;
29358;SDS011;16347;53.232;6.556;2023-03-25T01:31:11;28.77;;;3.65;;
29358;SDS011;16347;53.232;6.556;2023-03-25T01:33:42;25.10;;;4.33;;
29358;SDS011;16347;53.232;6.556;2023-03-25T01:36:10;43.33;;;4.07;;
29358;SDS011;16347;53.232;6.556;2023-03-25T01:38:39;37.83;;;4.10;;
29358;SDS011;16347;53.232;6.556;2023-03-25T01:41:09;25.55;;;3.72;;
29358;SDS011;16347;53.232;6.556;2023-03-25T01:43:37;28.00;;;3.88;;
29358;SDS011;16347;53.232;6.556;2023-03-25T01:46:07;31.33;;;3.72;;
29358;SDS011;16347;53.232;6.556;2023-03-25T01:48:41;32.42;;;3.63;;
29358;SDS011;16347;53.232;6.556;2023-03-25T01:51:13;32.72;;;4.05;;
29358;SDS011;16347;53.232;6.556;2023-03-25T01:53:44;29.30;;;3.80;;
29358;SDS011;16347;53.232;6.556;2023-03-25T01:56:15;37.03;;;4.00;;
29358;SDS011;16347;53.232;6.556;2023-03-25T01:58:47;27.42;;;4.10;;
29358;SDS011;16347;53.232;6.556;2023-03-25T02:01:19;24.63;;;3.45;;
29358;SDS011;16347;53.232;6.556;2023-03-25T02:03:49;48.55;;;4.15;;
29358;SDS011;16347;53.232;6.556;2023-03-25T02:06:19;34.25;;;4.93;;
29358;SDS011;16347;53.232;6.556;2023-03-25T02:08:54;31.08;;;3.85;;
29358;SDS011;16347;53.232;6.556;2023-03-25T02:11:25;39.95;;;4.82;;
29358;SDS011;16347;53.232;6.556;2023-03-25T02:13:55;30.25;;;4.32;;
29358;SDS011;16347;53.232;6.556;2023-03-25T02:16:27;36.97;;;4.90;;
29358;SDS011;16347;53.232;6.556;2023-03-25T02:19:11;34.92;;;4.57;;
29358;SDS011;16347;53.232;6.556;2023-03-25T02:22:09;43.42;;;5.38;;
29358;SDS011;16347;53.232;6.556;2023-03-25T02:27:51;30.55;;;4.15;;
29358;SDS011;16347;53.232;6.556;2023-03-25T02:30:36;40.88;;;5.05;;
29358;SDS011;16347;53.232;6.556;2023-03-25T02:33:27;52.45;;;5.80;;
29358;SDS011;16347;53.232;6.556;2023-03-25T02:39:28;38.92;;;4.68;;
29358;SDS011;16347;53.232;6.556;2023-03-25T02:42:01;29.80;;;4.65;;
29358;SDS011;16347;53.232;6.556;2023-03-25T02:44:36;33.47;;;4.72;;
29358;SDS011;16347;53.232;6.556;2023-03-25T02:47:10;31.88;;;5.00;;
29358;SDS011;16347;53.232;6.556;2023-03-25T02:49:43;46.30;;;5.13;;
29358;SDS011;16347;53.232;6.556;2023-03-25T02:52:15;43.15;;;5.22;;
29358;SDS011;16347;53.232;6.556;2023-03-25T02:54:48;42.83;;;5.25;;
29358;SDS011;16347;53.232;6.556;2023-03-25T02:57:24;37.33;;;4.28;;
29358;SDS011;16347;53.232;6.556;2023-03-25T02:59:55;33.97;;;4.65;;
29358;SDS011;16347;53.232;6.556;2023-03-25T03:02:27;37.08;;;4.07;;
29358;SDS011;16347;53.232;6.556;2023-03-25T03:04:58;37.60;;;4.60;;
29358;SDS011;16347;53.232;6.556;2023-03-25T03:07:27;26.02;;;3.72;;
29358;SDS011;16347;53.232;6.556;2023-03-25T03:10:01;45.60;;;5.20;;
29358;SDS011;16347;53.232;6.556;2023-03-25T03:12:44;33.17;;;4.15;;
29358;SDS011;16347;53.232;6.556;2023-03-25T03:15:30;34.33;;;5.22;;
29358;SDS011;16347;53.232;6.556;2023-03-25T03:18:08;30.55;;;4.20;;
29358;SDS011;16347;53.232;6.556;2023-03-25T03:20:47;34.78;;;4.50;;
29358;SDS011;16347;53.232;6.556;2023-03-25T03:23:23;32.85;;;4.15;;
29358;SDS011;16347;53.232;6.556;2023-03-25T03:25:58;33.35;;;3.80;;
29358;SDS011;16347;53.232;6.556;2023-03-25T03:28:33;37.88;;;6.05;;
29358;SDS011;16347;53.232;6.556;2023-03-25T03:31:11;34.92;;;4.05;;
29358;SDS011;16347;53.232;6.556;2023-03-25T03:34:05;31.85;;;5.13;;
29358;SDS011;16347;53.232;6.556;2023-03-25T03:36:41;33.65;;;4.40;;
29358;SDS011;16347;53.232;6.556;2023-03-25T03:39:14;34.17;;;4.13;;
29358;SDS011;16347;53.232;6.556;2023-03-25T03:41:48;33.23;;;4.30;;
29358;SDS011;16347;53.232;6.556;2023-03-25T03:44:20;28.48;;;4.63;;
29358;SDS011;16347;53.232;6.556;2023-03-25T03:46:55;28.20;;;4.30;;
29358;SDS011;16347;53.232;6.556;2023-03-25T03:49:27;32.80;;;4.47;;
29358;SDS011;16347;53.232;6.556;2023-03-25T03:52:00;38.88;;;5.40;;
29358;SDS011;16347;53.232;6.556;2023-03-25T03:54:35;45.08;;;4.75;;
29358;SDS011;16347;53.232;6.556;2023-03-25T03:57:10;32.40;;;3.92;;
29358;SDS011;16347;53.232;6.556;2023-03-25T03:59:47;39.40;;;4.25;;
29358;SDS011;16347;53.232;6.556;2023-03-25T04:02:22;37.33;;;4.90;;
29358;SDS011;16347;53.232;6.556;2023-03-25T04:04:54;27.85;;;4.60;;
29358;SDS011;16347;53.232;6.556;2023-03-25T04:07:27;39.03;;;4.60;;
29358;SDS011;16347;53.232;6.556;2023-03-25T04:10:08;38.13;;;4.75;;
29358;SDS011;16347;53.232;6.556;2023-03-25T04:12:43;42.60;;;5.13;;
29358;SDS011;16347;53.232;6.556;2023-03-25T04:15:15;29.95;;;5.57;;
29358;SDS011;16347;53.232;6.556;2023-03-25T04:17:44;36.90;;;4.25;;
29358;SDS011;16347;53.232;6.556;2023-03-25T04:20:14;44.67;;;4.50;;
29358;SDS011;16347;53.232;6.556;2023-03-25T04:22:49;35.95;;;4.15;;
29358;SDS011;16347;53.232;6.556;2023-03-25T04:25:17;31.70;;;4.45;;
29358;SDS011;16347;53.232;6.556;2023-03-25T04:27:52;34.40;;;4.22;;
29358;SDS011;16347;53.232;6.556;2023-03-25T04:30:26;37.63;;;4.05;;
29358;SDS011;16347;53.232;6.556;2023-03-25T04:32:56;46.88;;;5.72;;
29358;SDS011;16347;53.232;6.556;2023-03-25T04:35:26;38.55;;;4.65;;
29358;SDS011;16347;53.232;6.556;2023-03-25T04:37:54;33.20;;;5.47;;
29358;SDS011;16347;53.232;6.556;2023-03-25T04:40:22;41.13;;;4.95;;
29358;SDS011;16347;53.232;6.556;2023-03-25T04:42:53;46.33;;;5.32;;
29358;SDS011;16347;53.232;6.556;2023-03-25T04:45:22;47.20;;;5.50;;
29358;SDS011;16347;53.232;6.556;2023-03-25T04:47:51;27.42;;;4.18;;
29358;SDS011;16347;53.232;6.556;2023-03-25T04:50:21;39.40;;;5.18;;
29358;SDS011;16347;53.232;6.556;2023-03-25T04:52:51;29.92;;;4.53;;
29358;SDS011;16347;53.232;6.556;2023-03-25T04:55:23;37.10;;;4.22;;
29358;SDS011;16347;53.232;6.556;2023-03-25T04:57:53;30.35;;;4.28;;
29358;SDS011;16347;53.232;6.556;2023-03-25T05:00:22;30.73;;;4.70;;
29358;SDS011;16347;53.232;6.556;2023-03-25T05:02:52;38.70;;;4.80;;
29358;SDS011;16347;53.232;6.556;2023-03-25T05:05:23;27.10;;;3.85;;
29358;SDS011;16347;53.232;6.556;2023-03-25T05:07:52;39.28;;;4.43;;
29358;SDS011;16347;53.232;6.556;2023-03-25T05:10:24;37.75;;;4.55;;
29358;SDS011;16347;53.232;6.556;2023-03-25T05:13:00;29.95;;;4.47;;
29358;SDS011;16347;53.232;6.556;2023-03-25T05:15:30;28.73;;;4.43;;
29358;SDS011;16347;53.232;6.556;2023-03-25T05:18:01;24.33;;;3.78;;
29358;SDS011;16347;53.232;6.556;2023-03-25T05:20:29;33.60;;;4.18;;
29358;SDS011;16347;53.232;6.556;2023-03-25T05:23:00;37.65;;;5.00;;
29358;SDS011;16347;53.232;6.556;2023-03-25T05:25:29;44.72;;;4.57;;
29358;SDS011;16347;53.232;6.556;2023-03-25T05:28:01;52.00;;;5.47;;
29358;SDS011;16347;53.232;6.556;2023-03-25T05:30:31;34.47;;;4.18;;
29358;SDS011;16347;53.232;6.556;2023-03-25T05:33:05;34.15;;;4.65;;
29358;SDS011;16347;53.232;6.556;2023-03-25T05:35:33;41.47;;;4.22;;
29358;SDS011;16347;53.232;6.556;2023-03-25T05:38:02;34.92;;;4.65;;
29358;SDS011;16347;53.232;6.556;2023-03-25T05:40:30;35.75;;;5.43;;
29358;SDS011;16347;53.232;6.556;2023-03-25T05:43:00;36.38;;;4.03;;
29358;SDS011;16347;53.232;6.556;2023-03-25T05:45:29;45.20;;;5.05;;
29358;SDS011;16347;53.232;6.556;2023-03-25T05:47:57;45.92;;;5.53;;
29358;SDS011;16347;53.232;6.556;2023-03-25T05:50:26;48.55;;;4.72;;
29358;SDS011;16347;53.232;6.556;2023-03-25T05:52:55;37.15;;;4.53;;
29358;SDS011;16347;53.232;6.556;2023-03-25T05:55:26;41.97;;;4.70;;
29358;SDS011;16347;53.232;6.556;2023-03-25T05:57:54;36.42;;;5.03;;
29358;SDS011;16347;53.232;6.556;2023-03-25T06:00:25;47.83;;;5.78;;
29358;SDS011;16347;53.232;6.556;2023-03-25T06:02:55;44.35;;;5.35;;
29358;SDS011;16347;53.232;6.556;2023-03-25T06:05:24;36.70;;;4.38;;
29358;SDS011;16347;53.232;6.556;2023-03-25T06:07:55;43.97;;;4.63;;
29358;SDS011;16347;53.232;6.556;2023-03-25T06:10:23;50.05;;;6.53;;
29358;SDS011;16347;53.232;6.556;2023-03-25T06:12:51;45.05;;;5.63;;
29358;SDS011;16347;53.232;6.556;2023-03-25T06:15:20;38.80;;;4.90;;
29358;SDS011;16347;53.232;6.556;2023-03-25T06:17:56;43.45;;;5.32;;
29358;SDS011;16347;53.232;6.556;2023-03-25T06:20:25;28.95;;;4.05;;
29358;SDS011;16347;53.232;6.556;2023-03-25T06:22:53;37.15;;;5.63;;
29358;SDS011;16347;53.232;6.556;2023-03-25T06:25:22;28.90;;;4.18;;
29358;SDS011;16347;53.232;6.556;2023-03-25T06:27:52;35.78;;;4.55;;
29358;SDS011;16347;53.232;6.556;2023-03-25T06:30:22;38.92;;;7.22;;
29358;SDS011;16347;53.232;6.556;2023-03-25T06:32:50;45.50;;;5.57;;
29358;SDS011;16347;53.232;6.556;2023-03-25T06:35:23;33.10;;;3.78;;
29358;SDS011;16347;53.232;6.556;2023-03-25T06:37:51;30.52;;;3.75;;
29358;SDS011;16347;53.232;6.556;2023-03-25T06:40:42;36.72;;;4.15;;
29358;SDS011;16347;53.232;6.556;2023-03-25T06:43:10;32.88;;;3.80;;
29358;SDS011;16347;53.232;6.556;2023-03-25T06:45:58;26.00;;;3.92;;
29358;SDS011;16347;53.232;6.556;2023-03-25T06:48:47;40.92;;;4.75;;
29358;SDS011;16347;53.232;6.556;2023-03-25T06:51:17;33.92;;;4.47;;
29358;SDS011;16347;53.232;6.556;2023-03-25T06:53:47;32.28;;;4.97;;
29358;SDS011;16347;53.232;6.556;2023-03-25T06:56:15;42.40;;;4.10;;
29358;SDS011;16347;53.232;6.556;2023-03-25T06:58:44;24.23;;;4.35;;
29358;SDS011;16347;53.232;6.556;2023-03-25T07:01:12;38.78;;;5.53;;
29358;SDS011;16347;53.232;6.556;2023-03-25T07:03:40;38.50;;;4.57;;
29358;SDS011;16347;53.232;6.556;2023-03-25T07:06:08;37.78;;;4.97;;
29358;SDS011;16347;53.232;6.556;2023-03-25T07:08:44;29.65;;;4.43;;
29358;SDS011;16347;53.232;6.556;2023-03-25T07:11:12;35.25;;;4.70;;
29358;SDS011;16347;53.232;6.556;2023-03-25T07:13:41;30.75;;;4.20;;
29358;SDS011;16347;53.232;6.556;2023-03-25T07:16:10;40.78;;;4.75;;
29358;SDS011;16347;53.232;6.556;2023-03-25T07:18:40;27.73;;;3.85;;
29358;SDS011;16347;53.232;6.556;2023-03-25T07:21:08;25.52;;;4.20;;
29358;SDS011;16347;53.232;6.556;2023-03-25T07:23:36;25.10;;;3.05;;
29358;SDS011;16347;53.232;6.556;2023-03-25T07:26:06;36.72;;;3.65;;
29358;SDS011;16347;53.232;6.556;2023-03-25T07:28:34;31.40;;;3.33;;
29358;SDS011;16347;53.232;6.556;2023-03-25T07:31:04;25.50;;;3.42;;
29358;SDS011;16347;53.232;6.556;2023-03-25T07:33:33;29.95;;;3.92;;
29358;SDS011;16347;53.232;6.556;2023-03-25T07:36:02;35.25;;;3.60;;
29358;SDS011;16347;53.232;6.556;2023-03-25T07:38:32;25.15;;;4.63;;
29358;SDS011;16347;53.232;6.556;2023-03-25T07:41:03;29.60;;;4.00;;
29358;SDS011;16347;53.232;6.556;2023-03-25T07:43:34;21.05;;;3.20;;
29358;SDS011;16347;53.232;6.556;2023-03-25T07:46:24;31.35;;;3.40;;
29358;SDS011;16347;53.232;6.556;2023-03-25T07:48:53;32.55;;;4.47;;
29358;SDS011;16347;53.232;6.556;2023-03-25T07:51:21;31.33;;;4.25;;
29358;SDS011;16347;53.232;6.556;2023-03-25T07:53:49;25.17;;;3.78;;
29358;SDS011;16347;53.232;6.556;2023-03-25T07:56:19;18.75;;;3.15;;
29358;SDS011;16347;53.232;6.556;2023-03-25T07:58:47;11.85;;;2.60;;
29358;SDS011;16347;53.232;6.556;2023-03-25T08:01:15;23.23;;;3.03;;
29358;SDS011;16347;53.232;6.556;2023-03-25T08:03:43;22.77;;;3.38;;
29358;SDS011;16347;53.232;6.556;2023-03-25T08:06:11;24.83;;;3.20;;
29358;SDS011;16347;53.232;6.556;2023-03-25T08:08:39;22.48;;;3.17;;
29358;SDS011;16347;53.232;6.556;2023-03-25T08:11:08;25.63;;;4.38;;
29358;SDS011;16347;53.232;6.556;2023-03-25T08:13:38;31.17;;;3.42;;
29358;SDS011;16347;53.232;6.556;2023-03-25T08:16:08;26.23;;;3.03;;
29358;SDS011;16347;53.232;6.556;2023-03-25T08:18:39;18.83;;;3.58;;
29358;SDS011;16347;53.232;6.556;2023-03-25T08:21:10;24.52;;;3.40;;
29358;SDS011;16347;53.232;6.556;2023-03-25T08:23:38;27.02;;;3.47;;
29358;SDS011;16347;53.232;6.556;2023-03-25T08:26:07;19.23;;;2.63;;
29358;SDS011;16347;53.232;6.556;2023-03-25T08:28:35;20.48;;;3.75;;
29358;SDS011;16347;53.232;6.556;2023-03-25T08:31:05;25.45;;;3.78;;
29358;SDS011;16347;53.232;6.556;2023-03-25T08:33:35;25.40;;;3.60;;
29358;SDS011;16347;53.232;6.556;2023-03-25T08:36:06;24.38;;;3.78;;
29358;SDS011;16347;53.232;6.556;2023-03-25T08:38:36;16.98;;;3.08;;
29358;SDS011;16347;53.232;6.556;2023-03-25T08:41:04;21.38;;;3.15;;
29358;SDS011;16347;53.232;6.556;2023-03-25T08:43:32;21.25;;;3.22;;
29358;SDS011;16347;53.232;6.556;2023-03-25T08:46:01;28.83;;;3.55;;
29358;SDS011;16347;53.232;6.556;2023-03-25T08:48:30;24.33;;;2.80;;
29358;SDS011;16347;53.232;6.556;2023-03-25T08:50:58;25.13;;;3.72;;
29358;SDS011;16347;53.232;6.556;2023-03-25T08:53:26;17.55;;;2.85;;
29358;SDS011;16347;53.232;6.556;2023-03-25T08:55:55;16.45;;;2.88;;
29358;SDS011;16347;53.232;6.556;2023-03-25T08:58:24;28.42;;;3.45;;
29358;SDS011;16347;53.232;6.556;2023-03-25T09:00:53;23.27;;;2.47;;
29358;SDS011;16347;53.232;6.556;2023-03-25T09:03:24;20.90;;;3.25;;
29358;SDS011;16347;53.232;6.556;2023-03-25T09:05:53;20.20;;;3.15;;
29358;SDS011;16347;53.232;6.556;2023-03-25T09:08:22;32.30;;;3.90;;
29358;SDS011;16347;53.232;6.556;2023-03-25T09:10:53;26.83;;;3.28;;
29358;SDS011;16347;53.232;6.556;2023-03-25T09:13:22;25.20;;;3.47;;
29358;SDS011;16347;53.232;6.556;2023-03-25T09:15:50;25.92;;;3.38;;
29358;SDS011;16347;53.232;6.556;2023-03-25T09:18:19;26.83;;;3.08;;
29358;SDS011;16347;53.232;6.556;2023-03-25T09:20:48;13.75;;;2.75;;
29358;SDS011;16347;53.232;6.556;2023-03-25T09:23:17;24.92;;;2.90;;
29358;SDS011;16347;53.232;6.556;2023-03-25T09:25:45;26.23;;;3.80;;
29358;SDS011;16347;53.232;6.556;2023-03-25T09:28:14;18.08;;;2.67;;
29358;SDS011;16347;53.232;6.556;2023-03-25T09:30:43;24.05;;;3.35;;
29358;SDS011;16347;53.232;6.556;2023-03-25T09:33:12;25.88;;;3.15;;
29358;SDS011;16347;53.232;6.556;2023-03-25T09:35:41;16.17;;;2.85;;
29358;SDS011;16347;53.232;6.556;2023-03-25T09:38:10;24.70;;;3.50;;
29358;SDS011;16347;53.232;6.556;2023-03-25T09:40:39;16.63;;;3.10;;
29358;SDS011;16347;53.232;6.556;2023-03-25T09:43:14;23.95;;;2.60;;
29358;SDS011;16347;53.232;6.556;2023-03-25T09:45:56;16.67;;;2.72;;
29358;SDS011;16347;53.232;6.556;2023-03-25T09:48:26;23.35;;;2.42;;
29358;SDS011;16347;53.232;6.556;2023-03-25T09:50:59;23.92;;;2.88;;
29358;SDS011;16347;53.232;6.556;2023-03-25T09:53:33;14.15;;;2.97;;
29358;SDS011;16347;53.232;6.556;2023-03-25T09:56:09;24.88;;;3.28;;
29358;SDS011;16347;53.232;6.556;2023-03-25T09:58:41;16.23;;;2.67;;
29358;SDS011;16347;53.232;6.556;2023-03-25T10:01:22;19.60;;;3.05;;
29358;SDS011;16347;53.232;6.556;2023-03-25T10:04:08;28.55;;;3.15;;
29358;SDS011;16347;53.232;6.556;2023-03-25T10:06:56;24.88;;;2.50;;
29358;SDS011;16347;53.232;6.556;2023-03-25T10:09:44;15.50;;;2.60;;
29358;SDS011;16347;53.232;6.556;2023-03-25T10:12:24;31.73;;;3.72;;
29358;SDS011;16347;53.232;6.556;2023-03-25T10:15:02;32.97;;;3.53;;
29358;SDS011;16347;53.232;6.556;2023-03-25T10:17:46;21.27;;;2.75;;
29358;SDS011;16347;53.232;6.556;2023-03-25T10:20:24;25.25;;;3.08;;
29358;SDS011;16347;53.232;6.556;2023-03-25T10:23:09;22.05;;;2.95;;
29358;SDS011;16347;53.232;6.556;2023-03-25T10:25:46;28.33;;;3.47;;
29358;SDS011;16347;53.232;6.556;2023-03-25T10:28:21;30.45;;;3.60;;
29358;SDS011;16347;53.232;6.556;2023-03-25T10:30:55;39.05;;;4.95;;
29358;SDS011;16347;53.232;6.556;2023-03-25T10:33:27;22.65;;;3.85;;
29358;SDS011;16347;53.232;6.556;2023-03-25T10:36:01;19.98;;;3.70;;
29358;SDS011;16347;53.232;6.556;2023-03-25T10:38:33;19.08;;;2.78;;
29358;SDS011;16347;53.232;6.556;2023-03-25T10:41:12;28.88;;;3.85;;
29358;SDS011;16347;53.232;6.556;2023-03-25T10:43:46;24.33;;;2.92;;
29358;SDS011;16347;53.232;6.556;2023-03-25T10:46:16;24.65;;;3.17;;
29358;SDS011;16347;53.232;6.556;2023-03-25T10:48:54;33.45;;;4.25;;
29358;SDS011;16347;53.232;6.556;2023-03-25T10:51:22;22.25;;;2.78;;
29358;SDS011;16347;53.232;6.556;2023-03-25T10:53:54;25.70;;;2.83;;
29358;SDS011;16347;53.232;6.556;2023-03-25T10:56:26;29.63;;;3.95;;
29358;SDS011;16347;53.232;6.556;2023-03-25T10:58:59;27.70;;;3.17;;
29358;SDS011;16347;53.232;6.556;2023-03-25T11:01:33;28.42;;;3.88;;
29358;SDS011;16347;53.232;6.556;2023-03-25T11:04:05;24.73;;;3.65;;
29358;SDS011;16347;53.232;6.556;2023-03-25T11:06:37;21.27;;;3.40;;
29358;SDS011;16347;53.232;6.556;2023-03-25T11:09:11;22.88;;;3.70;;
29358;SDS011;16347;53.232;6.556;2023-03-25T11:11:45;19.33;;;3.28;;
29358;SDS011;16347;53.232;6.556;2023-03-25T11:14:16;22.75;;;3.20;;
29358;SDS011;16347;53.232;6.556;2023-03-25T11:16:52;22.98;;;3.08;;
29358;SDS011;16347;53.232;6.556;2023-03-25T11:21:56;20.63;;;2.60;;
29358;SDS011;16347;53.232;6.556;2023-03-25T11:24:29;24.87;;;3.37;;
29358;SDS011;16347;53.232;6.556;2023-03-25T11:27:02;33.63;;;3.58;;
29358;SDS011;16347;53.232;6.556;2023-03-25T11:29:34;19.98;;;2.70;;
29358;SDS011;16347;53.232;6.556;2023-03-25T11:32:06;22.17;;;3.33;;
29358;SDS011;16347;53.232;6.556;2023-03-25T11:34:45;15.52;;;2.83;;
29358;SDS011;16347;53.232;6.556;2023-03-25T11:37:15;14.43;;;2.58;;
29358;SDS011;16347;53.232;6.556;2023-03-25T11:39:47;9.95;;;1.80;;
29358;SDS011;16347;53.232;6.556;2023-03-25T11:42:26;26.20;;;2.90;;
29358;SDS011;16347;53.232;6.556;2023-03-25T11:44:59;15.40;;;2.60;;
29358;SDS011;16347;53.232;6.556;2023-03-25T11:47:30;19.92;;;2.42;;
29358;SDS011;16347;53.232;6.556;2023-03-25T11:50:00;20.45;;;2.63;;
29358;SDS011;16347;53.232;6.556;2023-03-25T11:52:31;10.90;;;1.90;;
29358;SDS011;16347;53.232;6.556;2023-03-25T11:55:11;19.33;;;3.10;;
29358;SDS011;16347;53.232;6.556;2023-03-25T11:57:44;27.38;;;3.88;;
29358;SDS011;16347;53.232;6.556;2023-03-25T12:00:25;16.25;;;2.40;;
29358;SDS011;16347;53.232;6.556;2023-03-25T12:05:27;19.98;;;3.15;;
29358;SDS011;16347;53.232;6.556;2023-03-25T12:08:00;27.60;;;2.70;;
29358;SDS011;16347;53.232;6.556;2023-03-25T12:10:40;14.98;;;2.50;;
29358;SDS011;16347;53.232;6.556;2023-03-25T12:13:28;20.38;;;2.97;;
29358;SDS011;16347;53.232;6.556;2023-03-25T12:16:09;23.80;;;3.38;;
29358;SDS011;16347;53.232;6.556;2023-03-25T12:18:49;17.38;;;2.72;;
29358;SDS011;16347;53.232;6.556;2023-03-25T12:21:34;25.50;;;2.88;;
29358;SDS011;16347;53.232;6.556;2023-03-25T12:24:10;17.08;;;2.67;;
29358;SDS011;16347;53.232;6.556;2023-03-25T12:26:49;12.63;;;2.13;;
29358;SDS011;16347;53.232;6.556;2023-03-25T12:29:31;16.42;;;2.67;;
29358;SDS011;16347;53.232;6.556;2023-03-25T12:32:08;19.00;;;2.22;;
29358;SDS011;16347;53.232;6.556;2023-03-25T12:34:50;26.92;;;3.17;;
29358;SDS011;16347;53.232;6.556;2023-03-25T12:37:32;18.73;;;2.47;;
29358;SDS011;16347;53.232;6.556;2023-03-25T12:40:16;9.43;;;2.15;;
29358;SDS011;16347;53.232;6.556;2023-03-25T12:42:53;25.45;;;2.28;;
29358;SDS011;16347;53.232;6.556;2023-03-25T12:45:36;17.85;;;2.10;;
29358;SDS011;16347;53.232;6.556;2023-03-25T12:48:18;21.98;;;2.50;;
29358;SDS011;16347;53.232;6.556;2023-03-25T12:51:11;16.48;;;2.58;;
29358;SDS011;16347;53.232;6.556;2023-03-25T12:53:50;9.00;;;2.10;;
29358;SDS011;16347;53.232;6.556;2023-03-25T12:59:19;14.48;;;2.45;;
29358;SDS011;16347;53.232;6.556;2023-03-25T13:02:07;19.42;;;2.67;;
29358;SDS011;16347;53.232;6.556;2023-03-25T13:04:50;23.63;;;3.22;;
29358;SDS011;16347;53.232;6.556;2023-03-25T13:07:31;11.50;;;2.78;;
29358;SDS011;16347;53.232;6.556;2023-03-25T13:10:04;24.20;;;2.78;;
29358;SDS011;16347;53.232;6.556;2023-03-25T13:12:42;23.58;;;2.83;;
29358;SDS011;16347;53.232;6.556;2023-03-25T13:17:55;18.77;;;2.83;;
29358;SDS011;16347;53.232;6.556;2023-03-25T13:20:27;16.10;;;2.55;;
29358;SDS011;16347;53.232;6.556;2023-03-25T13:22:59;10.48;;;2.20;;
29358;SDS011;16347;53.232;6.556;2023-03-25T13:25:32;14.75;;;3.67;;
29358;SDS011;16347;53.232;6.556;2023-03-25T13:28:15;12.18;;;2.17;;
29358;SDS011;16347;53.232;6.556;2023-03-25T13:30:48;24.17;;;3.35;;
29358;SDS011;16347;53.232;6.556;2023-03-25T13:33:19;21.35;;;2.78;;
29358;SDS011;16347;53.232;6.556;2023-03-25T13:35:52;24.67;;;2.75;;
29358;SDS011;16347;53.232;6.556;2023-03-25T13:38:27;21.85;;;3.13;;
29358;SDS011;16347;53.232;6.556;2023-03-25T13:41:06;23.58;;;3.08;;
29358;SDS011;16347;53.232;6.556;2023-03-25T13:43:38;22.58;;;3.75;;
29358;SDS011;16347;53.232;6.556;2023-03-25T13:46:17;23.33;;;2.92;;
29358;SDS011;16347;53.232;6.556;2023-03-25T13:48:50;16.17;;;1.77;;
29358;SDS011;16347;53.232;6.556;2023-03-25T13:51:21;18.25;;;2.55;;
29358;SDS011;16347;53.232;6.556;2023-03-25T13:53:51;16.73;;;2.45;;
29358;SDS011;16347;53.232;6.556;2023-03-25T13:59:30;16.00;;;2.20;;
29358;SDS011;16347;53.232;6.556;2023-03-25T14:05:20;8.57;;;1.35;;
29358;SDS011;16347;53.232;6.556;2023-03-25T14:08:14;11.27;;;1.83;;
29358;SDS011;16347;53.232;6.556;2023-03-25T14:10:58;12.75;;;1.63;;
29358;SDS011;16347;53.232;6.556;2023-03-25T14:13:42;11.20;;;2.38;;
29358;SDS011;16347;53.232;6.556;2023-03-25T14:16:14;10.03;;;1.70;;
29358;SDS011;16347;53.232;6.556;2023-03-25T14:18:47;14.23;;;2.10;;
29358;SDS011;16347;53.232;6.556;2023-03-25T14:21:33;15.40;;;2.03;;
29358;SDS011;16347;53.232;6.556;2023-03-25T14:24:09;13.25;;;1.90;;
29358;SDS011;16347;53.232;6.556;2023-03-25T14:26:41;14.02;;;2.20;;
29358;SDS011;16347;53.232;6.556;2023-03-25T14:29:17;16.23;;;2.40;;
29358;SDS011;16347;53.232;6.556;2023-03-25T14:32:01;9.65;;;2.08;;
29358;SDS011;16347;53.232;6.556;2023-03-25T14:34:31;19.92;;;2.47;;
29358;SDS011;16347;53.232;6.556;2023-03-25T14:37:17;18.67;;;2.30;;
29358;SDS011;16347;53.232;6.556;2023-03-25T14:39:56;13.88;;;2.55;;
29358;SDS011;16347;53.232;6.556;2023-03-25T14:48:28;22.80;;;2.17;;
29358;SDS011;16347;53.232;6.556;2023-03-25T14:51:13;17.85;;;2.40;;
29358;SDS011;16347;53.232;6.556;2023-03-25T14:53:54;17.80;;;3.10;;
29358;SDS011;16347;53.232;6.556;2023-03-25T14:56:31;15.75;;;3.33;;
29358;SDS011;16347;53.232;6.556;2023-03-25T14:59:04;14.50;;;2.75;;
29358;SDS011;16347;53.232;6.556;2023-03-25T15:01:36;8.65;;;2.28;;
29358;SDS011;16347;53.232;6.556;2023-03-25T15:04:07;20.27;;;2.33;;
29358;SDS011;16347;53.232;6.556;2023-03-25T15:06:39;23.63;;;2.13;;
29358;SDS011;16347;53.232;6.556;2023-03-25T15:09:10;20.20;;;2.22;;
29358;SDS011;16347;53.232;6.556;2023-03-25T15:11:41;10.27;;;1.80;;
29358;SDS011;16347;53.232;6.556;2023-03-25T15:14:12;17.63;;;2.03;;
29358;SDS011;16347;53.232;6.556;2023-03-25T15:16:57;20.15;;;2.78;;
29358;SDS011;16347;53.232;6.556;2023-03-25T15:19:27;15.18;;;1.80;;
29358;SDS011;16347;53.232;6.556;2023-03-25T15:22:06;12.02;;;2.10;;
29358;SDS011;16347;53.232;6.556;2023-03-25T15:24:56;14.25;;;1.98;;
29358;SDS011;16347;53.232;6.556;2023-03-25T15:30:31;16.45;;;2.28;;
29358;SDS011;16347;53.232;6.556;2023-03-25T15:33:27;13.70;;;1.90;;
29358;SDS011;16347;53.232;6.556;2023-03-25T15:36:12;14.75;;;2.28;;
29358;SDS011;16347;53.232;6.556;2023-03-25T15:38:59;14.07;;;2.03;;
29358;SDS011;16347;53.232;6.556;2023-03-25T15:41:55;22.77;;;2.70;;
29358;SDS011;16347;53.232;6.556;2023-03-25T15:44:56;14.77;;;1.95;;